createdAt,value
2023-01-17T00:01:46.218Z,2
2023-01-17T00:06:46.733Z,1
2023-01-17T00:11:46.267Z,2
2023-01-17T00:16:46.238Z,3
2023-01-17T00:21:46.246Z,2
2023-01-17T00:26:46.759Z,2
2023-01-17T00:31:46.446Z,2
2023-01-17T00:36:46.273Z,2
2023-01-17T00:41:46.300Z,2
2023-01-17T00:46:46.363Z,2
2023-01-17T00:51:46.329Z,1
2023-01-17T00:56:46.315Z,2
2023-01-17T01:01:46.572Z,2
2023-01-17T01:06:46.340Z,2
2023-01-17T01:11:46.869Z,2
2023-01-17T01:16:46.857Z,2
2023-01-17T01:21:52.300Z,2
2023-01-17T01:26:46.621Z,1
2023-01-17T01:31:46.448Z,2
2023-01-17T01:36:46.383Z,2
2023-01-17T01:41:46.386Z,2
2023-01-17T01:46:48.736Z,2
2023-01-17T01:51:46.463Z,2
2023-01-17T01:56:46.932Z,2
2023-01-17T02:01:47.092Z,2
2023-01-17T02:06:46.468Z,2
2023-01-17T02:11:46.969Z,1
2023-01-17T02:16:47.019Z,1
2023-01-17T02:21:46.976Z,1
2023-01-17T02:26:51.859Z,2
2023-01-17T02:31:46.522Z,2
2023-01-17T02:36:46.484Z,2
2023-01-17T02:41:46.486Z,1
2023-01-17T02:46:46.538Z,1
2023-01-17T02:51:50.633Z,1
2023-01-17T02:56:46.528Z,1
2023-01-17T03:01:46.759Z,1
2023-01-17T03:06:47.120Z,2
2023-01-17T03:11:46.570Z,2
2023-01-17T03:16:46.608Z,1
2023-01-17T03:21:46.582Z,1
2023-01-17T03:26:47.205Z,2
2023-01-17T03:31:47.085Z,2
2023-01-17T03:36:46.595Z,2
2023-01-17T03:41:46.610Z,1
2023-01-17T03:46:46.724Z,1
2023-01-17T03:51:46.683Z,1
2023-01-17T03:56:51.975Z,1
2023-01-17T04:01:47.276Z,2
2023-01-17T04:06:47.201Z,2
2023-01-17T04:11:46.643Z,2
2023-01-17T04:16:46.675Z,2
2023-01-17T04:21:47.181Z,2
2023-01-17T04:26:46.701Z,2
2023-01-17T04:31:46.726Z,2
2023-01-17T04:36:47.796Z,2
2023-01-17T04:41:47.247Z,2
2023-01-17T04:46:47.258Z,2
2023-01-17T04:51:47.262Z,2
2023-01-17T04:56:46.749Z,2
2023-01-17T05:01:46.770Z,2
2023-01-17T05:06:52.118Z,2
2023-01-17T05:11:47.255Z,2
2023-01-17T05:16:47.285Z,2
2023-01-17T05:21:47.293Z,3
2023-01-17T05:26:48.045Z,3
2023-01-17T05:31:46.786Z,4
2023-01-17T05:36:47.339Z,3
2023-01-17T05:41:47.324Z,3
2023-01-17T05:46:47.351Z,3
2023-01-17T05:51:47.403Z,3
2023-01-17T05:56:46.845Z,2
2023-01-17T06:01:47.353Z,2
2023-01-17T06:06:46.887Z,3
2023-01-17T06:11:46.856Z,3
2023-01-17T06:16:47.375Z,4
2023-01-17T06:21:46.878Z,3
2023-01-17T06:26:46.916Z,4
2023-01-17T06:32:01.788Z,3
2023-01-17T06:36:46.913Z,4
2023-01-17T06:41:47.529Z,4
2023-01-17T06:46:47.006Z,4
2023-01-17T06:51:47.596Z,5
2023-01-17T06:56:47.550Z,4
2023-01-17T07:01:53.014Z,4
2023-01-17T07:06:53.604Z,5
2023-01-17T07:11:47.615Z,5
2023-01-17T07:16:47.585Z,5
2023-01-17T07:21:47.617Z,6
2023-01-17T07:26:47.598Z,7
2023-01-17T07:31:47.509Z,7
2023-01-17T07:36:52.364Z,6
2023-01-17T07:41:47.020Z,5
2023-01-17T07:46:47.052Z,6
2023-01-17T07:51:47.040Z,7
2023-01-17T07:56:47.614Z,7
2023-01-17T08:01:47.224Z,7
2023-01-17T08:06:47.092Z,7
2023-01-17T08:11:47.694Z,7
2023-01-17T08:16:47.813Z,7
2023-01-17T08:21:47.087Z,6
2023-01-17T08:26:47.596Z,6
2023-01-17T08:31:47.724Z,6
2023-01-17T08:37:01.628Z,6
2023-01-17T08:41:47.152Z,9
2023-01-17T08:46:47.739Z,6
2023-01-17T08:51:47.224Z,7
2023-01-17T08:56:47.786Z,5
2023-01-17T09:01:47.939Z,6
2023-01-17T09:06:47.772Z,7
2023-01-17T09:11:47.168Z,5
2023-01-17T09:16:47.255Z,4
2023-01-17T09:21:47.182Z,5
2023-01-17T09:26:47.195Z,5
2023-01-17T09:31:47.241Z,5
2023-01-17T09:36:47.255Z,5
2023-01-17T09:41:47.256Z,4
2023-01-17T09:46:47.746Z,4
2023-01-17T09:51:47.303Z,5
2023-01-17T09:56:47.794Z,4
2023-01-17T10:01:48.000Z,4
2023-01-17T10:06:48.992Z,4
2023-01-17T10:11:47.780Z,4
2023-01-17T10:16:47.362Z,4
2023-01-17T10:21:47.303Z,5
2023-01-17T10:26:47.809Z,4
2023-01-17T10:31:47.313Z,5
2023-01-17T10:36:47.898Z,4
2023-01-17T10:41:47.830Z,5
2023-01-17T10:46:47.836Z,5
2023-01-17T10:51:49.110Z,8
2023-01-17T10:56:47.387Z,4
2023-01-17T11:02:02.992Z,10
2023-01-17T11:06:57.714Z,5
2023-01-17T11:11:47.378Z,5
2023-01-17T11:16:48.520Z,5
2023-01-17T11:21:47.898Z,5
2023-01-17T11:26:47.919Z,5
2023-01-17T11:31:47.418Z,5
2023-01-17T11:36:47.454Z,6
2023-01-17T11:41:48.063Z,5
2023-01-17T11:46:47.487Z,5
2023-01-17T11:51:47.444Z,6
2023-01-17T11:56:47.485Z,6
2023-01-17T12:01:47.980Z,5
2023-01-17T12:07:21.751Z,6
2023-01-17T12:11:47.926Z,6
2023-01-17T12:16:47.539Z,5
2023-01-17T12:21:47.498Z,5
2023-01-17T12:26:47.513Z,6
2023-01-17T12:31:47.524Z,7
2023-01-17T12:36:49.308Z,7
2023-01-17T12:41:51.686Z,6
2023-01-17T12:46:47.540Z,8
2023-01-17T12:51:48.193Z,9
2023-01-17T12:56:47.591Z,5
2023-01-17T13:01:47.705Z,8
2023-01-17T13:06:47.600Z,6
2023-01-17T13:11:53.541Z,4
2023-01-17T13:16:47.586Z,4
2023-01-17T13:21:47.652Z,11
2023-01-17T13:26:47.654Z,5
2023-01-17T13:31:48.310Z,13
2023-01-17T13:36:47.626Z,9
2023-01-17T13:41:47.642Z,9
2023-01-17T13:46:47.670Z,10
2023-01-17T13:51:47.692Z,8
2023-01-17T13:56:47.664Z,4
2023-01-17T14:01:47.785Z,5
2023-01-17T14:06:47.691Z,6
2023-01-17T14:11:48.235Z,4
2023-01-17T14:16:47.732Z,3
2023-01-17T14:21:48.216Z,5
2023-01-17T14:26:47.723Z,5
2023-01-17T14:31:48.303Z,3
2023-01-17T14:36:48.340Z,4
2023-01-17T14:41:47.774Z,6
2023-01-17T14:46:54.502Z,5
2023-01-17T14:51:47.768Z,5
2023-01-17T14:56:47.774Z,5
2023-01-17T15:01:58.308Z,5
2023-01-17T15:06:48.322Z,4
2023-01-17T15:11:48.306Z,3
2023-01-17T15:17:02.875Z,3
2023-01-17T15:21:53.985Z,3
2023-01-17T15:26:47.827Z,5
2023-01-17T15:31:48.469Z,4
2023-01-17T15:36:48.477Z,4
2023-01-17T15:41:48.484Z,5
2023-01-17T15:46:48.471Z,5
2023-01-17T15:52:05.966Z,13
2023-01-17T15:56:47.882Z,5
2023-01-17T16:01:49.250Z,14
2023-01-17T16:06:47.918Z,6
2023-01-17T16:11:47.918Z,6
2023-01-17T16:16:48.665Z,7
2023-01-17T16:21:47.959Z,9
2023-01-17T16:26:47.960Z,8
2023-01-17T16:31:47.939Z,8
2023-01-17T16:36:52.800Z,9
2023-01-17T16:41:47.951Z,8
2023-01-17T16:46:48.561Z,8
2023-01-17T16:51:47.963Z,7
2023-01-17T16:56:48.605Z,10
2023-01-17T17:01:48.707Z,19
2023-01-17T17:07:06.090Z,17
2023-01-17T17:11:48.004Z,11
2023-01-17T17:16:48.037Z,12
2023-01-17T17:21:48.026Z,13
2023-01-17T17:26:48.634Z,13
2023-01-17T17:31:48.042Z,12
2023-01-17T17:36:48.064Z,14
2023-01-17T17:41:48.052Z,13
2023-01-17T17:46:48.062Z,14
2023-01-17T17:51:49.305Z,15
2023-01-17T17:56:48.380Z,15
2023-01-17T18:02:04.536Z,15
2023-01-17T18:07:20.697Z,16
2023-01-17T18:11:48.107Z,18
2023-01-17T18:16:48.228Z,14
2023-01-17T18:21:48.635Z,15
2023-01-17T18:26:48.143Z,14
2023-01-17T18:32:02.559Z,15
2023-01-17T18:36:48.162Z,15
2023-01-17T18:41:48.161Z,15
2023-01-17T18:46:48.723Z,15
2023-01-17T18:51:48.710Z,14
2023-01-17T18:56:48.219Z,14
2023-01-17T19:01:48.802Z,15
2023-01-17T19:06:48.714Z,18
2023-01-17T19:11:48.251Z,18
2023-01-17T19:16:48.728Z,16
2023-01-17T19:21:48.727Z,18
2023-01-17T19:26:48.744Z,19
2023-01-17T19:31:48.302Z,20
2023-01-17T19:36:48.254Z,20
2023-01-17T19:41:48.867Z,19
2023-01-17T19:46:49.003Z,20
2023-01-17T19:51:48.368Z,18
2023-01-17T19:56:48.287Z,21
2023-01-17T20:01:48.431Z,18
2023-01-17T20:06:48.821Z,16
2023-01-17T20:11:48.344Z,19
2023-01-17T20:16:48.326Z,16
2023-01-17T20:21:48.329Z,18
2023-01-17T20:26:48.345Z,17
2023-01-17T20:31:48.480Z,17
2023-01-17T20:36:48.404Z,21
2023-01-17T20:41:48.873Z,22
2023-01-17T20:46:48.879Z,22
2023-01-17T20:51:48.443Z,19
2023-01-17T20:56:48.395Z,21
2023-01-17T21:01:49.008Z,20
2023-01-17T21:06:48.413Z,22
2023-01-17T21:11:48.974Z,22
2023-01-17T21:16:48.479Z,22
2023-01-17T21:21:48.617Z,23
2023-01-17T21:26:48.443Z,26
2023-01-17T21:31:49.012Z,21
2023-01-17T21:36:48.998Z,18
2023-01-17T21:41:48.985Z,18
2023-01-17T21:46:48.474Z,17
2023-01-17T21:51:48.520Z,16
2023-01-17T21:56:49.008Z,15
2023-01-17T22:01:48.565Z,14
2023-01-17T22:06:48.517Z,16
2023-01-17T22:11:48.955Z,15
2023-01-17T22:16:49.050Z,14
2023-01-17T22:21:48.537Z,15
2023-01-17T22:26:48.551Z,15
2023-01-17T22:31:48.582Z,18
2023-01-17T22:36:49.068Z,22
2023-01-17T22:41:48.578Z,19
2023-01-17T22:46:48.596Z,20
2023-01-17T22:51:48.609Z,19
2023-01-17T22:56:54.212Z,19
2023-01-17T23:01:48.615Z,16
2023-01-17T23:07:19.387Z,14
2023-01-17T23:11:49.248Z,12
2023-01-17T23:16:50.519Z,13
2023-01-17T23:21:48.642Z,13
2023-01-17T23:26:48.674Z,14
2023-01-17T23:31:49.267Z,12
2023-01-17T23:36:49.269Z,13
2023-01-17T23:41:48.680Z,11
2023-01-17T23:46:48.751Z,9
2023-01-17T23:51:48.689Z,8
2023-01-17T23:56:48.730Z,9
